sensor_id;sensor_type;location;lat;lon;timestamp;P1;durP1;ratioP1;P2;durP2;ratioP2
2107;SDS011;1060;52.492;13.388;2024-02-14T00:01:40;11.80;;;10.20;;
2107;SDS011;1060;52.492;13.388;2024-02-14T00:04:08;10.30;;;9.30;;
2107;SDS011;1060;52.492;13.388;2024-02-14T00:06:36;10.90;;;9.00;;
2107;SDS011;1060;52.492;13.388;2024-02-14T00:09:03;13.25;;;9.45;;
2107;SDS011;1060;52.492;13.388;2024-02-14T00:11:36;11.50;;;10.30;;
2107;SDS011;1060;52.492;13.388;2024-02-14T00:14:03;9.85;;;8.50;;
2107;SDS011;1060;52.492;13.388;2024-02-14T00:16:29;13.15;;;9.60;;
2107;SDS011;1060;52.492;13.388;2024-02-14T00:18:56;9.53;;;8.57;;
2107;SDS011;1060;52.492;13.388;2024-02-14T00:21:25;8.53;;;7.70;;
2107;SDS011;1060;52.492;13.388;2024-02-14T00:23:59;8.02;;;7.43;;
2107;SDS011;1060;52.492;13.388;2024-02-14T00:26:29;11.07;;;8.93;;
2107;SDS011;1060;52.492;13.388;2024-02-14T00:28:55;11.77;;;10.82;;
2107;SDS011;1060;52.492;13.388;2024-02-14T00:31:21;12.27;;;9.60;;
2107;SDS011;1060;52.492;13.388;2024-02-14T00:33:48;11.55;;;10.35;;
2107;SDS011;1060;52.492;13.388;2024-02-14T00:36:14;16.95;;;11.02;;
2107;SDS011;1060;52.492;13.388;2024-02-14T00:38:43;11.77;;;10.57;;
2107;SDS011;1060;52.492;13.388;2024-02-14T00:41:33;10.52;;;9.52;;
2107;SDS011;1060;52.492;13.388;2024-02-14T00:44:02;10.87;;;9.83;;
2107;SDS011;1060;52.492;13.388;2024-02-14T00:46:28;12.80;;;11.38;;
2107;SDS011;1060;52.492;13.388;2024-02-14T00:48:55;13.30;;;11.90;;
2107;SDS011;1060;52.492;13.388;2024-02-14T00:51:24;10.07;;;8.93;;
2107;SDS011;1060;52.492;13.388;2024-02-14T00:56:49;12.20;;;9.73;;
2107;SDS011;1060;52.492;13.388;2024-02-14T00:59:15;11.15;;;10.25;;
2107;SDS011;1060;52.492;13.388;2024-02-14T01:01:42;9.63;;;8.40;;
2107;SDS011;1060;52.492;13.388;2024-02-14T01:04:08;10.05;;;9.00;;
2107;SDS011;1060;52.492;13.388;2024-02-14T01:06:37;12.50;;;8.93;;
2107;SDS011;1060;52.492;13.388;2024-02-14T01:09:03;10.98;;;9.65;;
2107;SDS011;1060;52.492;13.388;2024-02-14T01:11:29;10.52;;;9.50;;
2107;SDS011;1060;52.492;13.388;2024-02-14T01:13:59;9.17;;;8.27;;
2107;SDS011;1060;52.492;13.388;2024-02-14T01:16:28;11.52;;;8.88;;
2107;SDS011;1060;52.492;13.388;2024-02-14T01:18:54;10.65;;;9.45;;
2107;SDS011;1060;52.492;13.388;2024-02-14T01:21:20;10.20;;;9.10;;
2107;SDS011;1060;52.492;13.388;2024-02-14T01:23:46;10.95;;;9.82;;
2107;SDS011;1060;52.492;13.388;2024-02-14T01:26:13;10.65;;;9.00;;
2107;SDS011;1060;52.492;13.388;2024-02-14T01:28:39;10.80;;;9.45;;
2107;SDS011;1060;52.492;13.388;2024-02-14T01:31:09;12.45;;;9.55;;
2107;SDS011;1060;52.492;13.388;2024-02-14T01:33:37;14.67;;;9.50;;
2107;SDS011;1060;52.492;13.388;2024-02-14T01:36:08;11.23;;;9.93;;
2107;SDS011;1060;52.492;13.388;2024-02-14T01:38:34;11.30;;;9.48;;
2107;SDS011;1060;52.492;13.388;2024-02-14T01:41:01;11.38;;;10.27;;
2107;SDS011;1060;52.492;13.388;2024-02-14T01:43:34;10.90;;;8.88;;
2107;SDS011;1060;52.492;13.388;2024-02-14T01:46:07;9.70;;;8.80;;
2107;SDS011;1060;52.492;13.388;2024-02-14T01:48:34;9.80;;;8.90;;
2107;SDS011;1060;52.492;13.388;2024-02-14T01:51:00;14.30;;;9.45;;
2107;SDS011;1060;52.492;13.388;2024-02-14T01:53:27;11.43;;;10.32;;
2107;SDS011;1060;52.492;13.388;2024-02-14T01:55:56;9.90;;;8.98;;
2107;SDS011;1060;52.492;13.388;2024-02-14T01:58:23;10.73;;;9.83;;
2107;SDS011;1060;52.492;13.388;2024-02-14T02:00:49;9.55;;;7.60;;
2107;SDS011;1060;52.492;13.388;2024-02-14T02:03:16;8.10;;;7.40;;
2107;SDS011;1060;52.492;13.388;2024-02-14T02:05:46;9.30;;;8.50;;
2107;SDS011;1060;52.492;13.388;2024-02-14T02:08:13;9.32;;;8.52;;
2107;SDS011;1060;52.492;13.388;2024-02-14T02:10:41;10.00;;;9.00;;
2107;SDS011;1060;52.492;13.388;2024-02-14T02:13:08;8.77;;;7.45;;
2107;SDS011;1060;52.492;13.388;2024-02-14T02:15:34;13.13;;;8.95;;
2107;SDS011;1060;52.492;13.388;2024-02-14T02:18:02;10.98;;;7.95;;
2107;SDS011;1060;52.492;13.388;2024-02-14T02:20:34;9.47;;;8.60;;
2107;SDS011;1060;52.492;13.388;2024-02-14T02:23:00;8.73;;;7.40;;
2107;SDS011;1060;52.492;13.388;2024-02-14T02:25:57;10.90;;;8.85;;
2107;SDS011;1060;52.492;13.388;2024-02-14T02:28:23;8.40;;;7.60;;
2107;SDS011;1060;52.492;13.388;2024-02-14T02:30:50;10.95;;;7.97;;
2107;SDS011;1060;52.492;13.388;2024-02-14T02:33:17;9.40;;;8.57;;
2107;SDS011;1060;52.492;13.388;2024-02-14T02:35:43;9.63;;;8.40;;
2107;SDS011;1060;52.492;13.388;2024-02-14T02:38:10;8.33;;;7.53;;
2107;SDS011;1060;52.492;13.388;2024-02-14T02:40:39;8.67;;;7.87;;
2107;SDS011;1060;52.492;13.388;2024-02-14T02:43:08;8.20;;;7.43;;
2107;SDS011;1060;52.492;13.388;2024-02-14T02:45:35;7.18;;;6.47;;
2107;SDS011;1060;52.492;13.388;2024-02-14T02:48:01;11.48;;;8.70;;
2107;SDS011;1060;52.492;13.388;2024-02-14T02:50:28;10.73;;;9.73;;
2107;SDS011;1060;52.492;13.388;2024-02-14T02:52:55;8.40;;;7.23;;
2107;SDS011;1060;52.492;13.388;2024-02-14T02:55:22;9.83;;;8.83;;
2107;SDS011;1060;52.492;13.388;2024-02-14T02:57:48;9.37;;;6.97;;
2107;SDS011;1060;52.492;13.388;2024-02-14T03:00:14;8.30;;;7.00;;
2107;SDS011;1060;52.492;13.388;2024-02-14T03:02:41;9.75;;;7.90;;
2107;SDS011;1060;52.492;13.388;2024-02-14T03:05:09;8.07;;;7.37;;
2107;SDS011;1060;52.492;13.388;2024-02-14T03:07:43;12.52;;;8.00;;
2107;SDS011;1060;52.492;13.388;2024-02-14T03:10:10;12.63;;;8.60;;
2107;SDS011;1060;52.492;13.388;2024-02-14T03:12:39;8.07;;;7.30;;
2107;SDS011;1060;52.492;13.388;2024-02-14T03:15:06;8.27;;;7.50;;
2107;SDS011;1060;52.492;13.388;2024-02-14T03:17:35;8.77;;;7.72;;
2107;SDS011;1060;52.492;13.388;2024-02-14T03:20:02;8.18;;;7.38;;
2107;SDS011;1060;52.492;13.388;2024-02-14T03:22:32;10.05;;;7.93;;
2107;SDS011;1060;52.492;13.388;2024-02-14T03:24:58;9.23;;;7.68;;
2107;SDS011;1060;52.492;13.388;2024-02-14T03:27:24;8.27;;;7.47;;
2107;SDS011;1060;52.492;13.388;2024-02-14T03:29:52;8.05;;;7.40;;
2107;SDS011;1060;52.492;13.388;2024-02-14T03:32:20;8.93;;;8.07;;
2107;SDS011;1060;52.492;13.388;2024-02-14T03:34:48;10.70;;;9.80;;
2107;SDS011;1060;52.492;13.388;2024-02-14T03:37:14;7.72;;;6.93;;
2107;SDS011;1060;52.492;13.388;2024-02-14T03:39:40;9.90;;;8.77;;
2107;SDS011;1060;52.492;13.388;2024-02-14T03:42:06;9.68;;;7.95;;
2107;SDS011;1060;52.492;13.388;2024-02-14T03:44:33;9.07;;;7.80;;
2107;SDS011;1060;52.492;13.388;2024-02-14T03:46:59;9.05;;;7.95;;
2107;SDS011;1060;52.492;13.388;2024-02-14T03:49:25;7.20;;;6.43;;
2107;SDS011;1060;52.492;13.388;2024-02-14T03:51:51;9.13;;;7.80;;
2107;SDS011;1060;52.492;13.388;2024-02-14T03:54:21;7.70;;;7.00;;
2107;SDS011;1060;52.492;13.388;2024-02-14T03:56:48;9.15;;;7.95;;
2107;SDS011;1060;52.492;13.388;2024-02-14T03:59:16;9.25;;;7.70;;
2107;SDS011;1060;52.492;13.388;2024-02-14T04:01:49;9.68;;;8.00;;
2107;SDS011;1060;52.492;13.388;2024-02-14T04:04:18;8.48;;;7.63;;
2107;SDS011;1060;52.492;13.388;2024-02-14T04:06:44;8.57;;;7.65;;
2107;SDS011;1060;52.492;13.388;2024-02-14T04:09:11;9.48;;;8.60;;
2107;SDS011;1060;52.492;13.388;2024-02-14T04:11:37;9.15;;;7.75;;
2107;SDS011;1060;52.492;13.388;2024-02-14T04:14:03;10.70;;;7.83;;
2107;SDS011;1060;52.492;13.388;2024-02-14T04:16:29;9.23;;;8.43;;
2107;SDS011;1060;52.492;13.388;2024-02-14T04:18:55;10.95;;;9.48;;
2107;SDS011;1060;52.492;13.388;2024-02-14T04:21:21;9.20;;;8.30;;
2107;SDS011;1060;52.492;13.388;2024-02-14T04:23:48;10.57;;;7.32;;
2107;SDS011;1060;52.492;13.388;2024-02-14T04:26:20;19.90;;;10.20;;
2107;SDS011;1060;52.492;13.388;2024-02-14T04:28:49;9.13;;;8.33;;
2107;SDS011;1060;52.492;13.388;2024-02-14T04:31:15;11.18;;;9.02;;
2107;SDS011;1060;52.492;13.388;2024-02-14T04:33:42;9.50;;;8.57;;
2107;SDS011;1060;52.492;13.388;2024-02-14T04:36:09;12.90;;;8.77;;
2107;SDS011;1060;52.492;13.388;2024-02-14T04:38:36;10.68;;;9.27;;
2107;SDS011;1060;52.492;13.388;2024-02-14T04:41:02;9.30;;;8.40;;
2107;SDS011;1060;52.492;13.388;2024-02-14T04:43:34;9.70;;;8.40;;
2107;SDS011;1060;52.492;13.388;2024-02-14T04:46:01;10.00;;;9.10;;
2107;SDS011;1060;52.492;13.388;2024-02-14T04:48:27;9.90;;;8.57;;
2107;SDS011;1060;52.492;13.388;2024-02-14T04:50:53;9.93;;;9.03;;
2107;SDS011;1060;52.492;13.388;2024-02-14T04:53:22;9.87;;;8.87;;
2107;SDS011;1060;52.492;13.388;2024-02-14T04:55:48;11.00;;;9.85;;
2107;SDS011;1060;52.492;13.388;2024-02-14T04:58:14;9.20;;;8.38;;
2107;SDS011;1060;52.492;13.388;2024-02-14T05:00:40;9.00;;;8.10;;
2107;SDS011;1060;52.492;13.388;2024-02-14T05:03:06;10.40;;;9.30;;
2107;SDS011;1060;52.492;13.388;2024-02-14T05:05:32;9.80;;;8.07;;
2107;SDS011;1060;52.492;13.388;2024-02-14T05:07:59;10.10;;;8.82;;
2107;SDS011;1060;52.492;13.388;2024-02-14T05:10:25;9.20;;;8.40;;
2107;SDS011;1060;52.492;13.388;2024-02-14T05:12:51;13.50;;;10.77;;
2107;SDS011;1060;52.492;13.388;2024-02-14T05:15:20;11.35;;;9.18;;
2107;SDS011;1060;52.492;13.388;2024-02-14T05:17:47;11.93;;;10.03;;
2107;SDS011;1060;52.492;13.388;2024-02-14T05:20:14;11.02;;;9.43;;
2107;SDS011;1060;52.492;13.388;2024-02-14T05:22:40;12.07;;;11.07;;
2107;SDS011;1060;52.492;13.388;2024-02-14T05:25:07;14.55;;;10.30;;
2107;SDS011;1060;52.492;13.388;2024-02-14T05:27:34;10.57;;;9.43;;
2107;SDS011;1060;52.492;13.388;2024-02-14T05:30:04;13.48;;;9.95;;
2107;SDS011;1060;52.492;13.388;2024-02-14T05:32:33;10.57;;;9.57;;
2107;SDS011;1060;52.492;13.388;2024-02-14T05:34:59;10.57;;;9.60;;
2107;SDS011;1060;52.492;13.388;2024-02-14T05:37:26;9.93;;;8.93;;
2107;SDS011;1060;52.492;13.388;2024-02-14T05:39:53;11.53;;;10.33;;
2107;SDS011;1060;52.492;13.388;2024-02-14T05:42:19;12.45;;;11.25;;
2107;SDS011;1060;52.492;13.388;2024-02-14T05:44:46;10.83;;;9.73;;
2107;SDS011;1060;52.492;13.388;2024-02-14T05:47:13;10.98;;;9.80;;
2107;SDS011;1060;52.492;13.388;2024-02-14T05:49:39;11.73;;;9.13;;
2107;SDS011;1060;52.492;13.388;2024-02-14T05:52:06;10.90;;;9.90;;
2107;SDS011;1060;52.492;13.388;2024-02-14T05:54:32;13.43;;;12.23;;
2107;SDS011;1060;52.492;13.388;2024-02-14T05:56:58;10.30;;;9.30;;
2107;SDS011;1060;52.492;13.388;2024-02-14T05:59:37;13.35;;;9.85;;
2107;SDS011;1060;52.492;13.388;2024-02-14T06:02:03;13.43;;;11.20;;
2107;SDS011;1060;52.492;13.388;2024-02-14T06:04:31;12.30;;;10.98;;
2107;SDS011;1060;52.492;13.388;2024-02-14T06:06:57;11.63;;;10.43;;
2107;SDS011;1060;52.492;13.388;2024-02-14T06:09:23;11.43;;;10.43;;
2107;SDS011;1060;52.492;13.388;2024-02-14T06:11:49;20.07;;;11.87;;
2107;SDS011;1060;52.492;13.388;2024-02-14T06:14:16;13.70;;;12.33;;
2107;SDS011;1060;52.492;13.388;2024-02-14T06:16:45;12.47;;;11.17;;
2107;SDS011;1060;52.492;13.388;2024-02-14T06:19:11;17.80;;;12.13;;
2107;SDS011;1060;52.492;13.388;2024-02-14T06:21:40;20.37;;;11.03;;
2107;SDS011;1060;52.492;13.388;2024-02-14T06:24:09;15.60;;;10.57;;
2107;SDS011;1060;52.492;13.388;2024-02-14T06:26:38;10.93;;;9.90;;
2107;SDS011;1060;52.492;13.388;2024-02-14T06:29:04;10.80;;;9.70;;
2107;SDS011;1060;52.492;13.388;2024-02-14T06:31:30;11.47;;;10.10;;
2107;SDS011;1060;52.492;13.388;2024-02-14T06:34:00;11.30;;;10.20;;
2107;SDS011;1060;52.492;13.388;2024-02-14T06:36:29;12.30;;;8.80;;
2107;SDS011;1060;52.492;13.388;2024-02-14T06:38:55;12.00;;;9.77;;
2107;SDS011;1060;52.492;13.388;2024-02-14T06:41:21;16.10;;;9.53;;
2107;SDS011;1060;52.492;13.388;2024-02-14T06:43:48;14.07;;;9.80;;
2107;SDS011;1060;52.492;13.388;2024-02-14T06:46:14;12.50;;;10.00;;
2107;SDS011;1060;52.492;13.388;2024-02-14T06:48:40;14.73;;;9.90;;
2107;SDS011;1060;52.492;13.388;2024-02-14T06:51:09;13.57;;;9.97;;
2107;SDS011;1060;52.492;13.388;2024-02-14T06:53:35;14.20;;;9.70;;
2107;SDS011;1060;52.492;13.388;2024-02-14T06:56:02;13.32;;;10.68;;
2107;SDS011;1060;52.492;13.388;2024-02-14T06:58:28;10.73;;;9.20;;
2107;SDS011;1060;52.492;13.388;2024-02-14T07:00:55;15.53;;;9.30;;
2107;SDS011;1060;52.492;13.388;2024-02-14T07:03:21;11.80;;;8.33;;
2107;SDS011;1060;52.492;13.388;2024-02-14T07:05:47;9.63;;;7.25;;
2107;SDS011;1060;52.492;13.388;2024-02-14T07:08:14;9.47;;;8.00;;
2107;SDS011;1060;52.492;13.388;2024-02-14T07:10:40;10.80;;;8.80;;
2107;SDS011;1060;52.492;13.388;2024-02-14T07:13:06;12.67;;;10.13;;
2107;SDS011;1060;52.492;13.388;2024-02-14T07:15:32;16.50;;;9.07;;
2107;SDS011;1060;52.492;13.388;2024-02-14T07:17:59;9.53;;;7.43;;
2107;SDS011;1060;52.492;13.388;2024-02-14T07:20:28;8.57;;;7.77;;
2107;SDS011;1060;52.492;13.388;2024-02-14T07:22:58;12.80;;;8.70;;
2107;SDS011;1060;52.492;13.388;2024-02-14T07:25:24;12.23;;;8.27;;
2107;SDS011;1060;52.492;13.388;2024-02-14T07:27:52;10.37;;;7.60;;
2107;SDS011;1060;52.492;13.388;2024-02-14T07:30:24;9.20;;;8.30;;
2107;SDS011;1060;52.492;13.388;2024-02-14T07:32:54;7.53;;;6.83;;
2107;SDS011;1060;52.492;13.388;2024-02-14T07:35:21;11.47;;;8.83;;
2107;SDS011;1060;52.492;13.388;2024-02-14T07:37:48;16.03;;;8.00;;
2107;SDS011;1060;52.492;13.388;2024-02-14T07:40:14;10.27;;;8.00;;
2107;SDS011;1060;52.492;13.388;2024-02-14T07:42:43;7.50;;;6.90;;
2107;SDS011;1060;52.492;13.388;2024-02-14T07:45:10;11.13;;;7.53;;
2107;SDS011;1060;52.492;13.388;2024-02-14T07:47:36;8.70;;;6.90;;
2107;SDS011;1060;52.492;13.388;2024-02-14T07:50:08;10.30;;;7.73;;
2107;SDS011;1060;52.492;13.388;2024-02-14T07:52:35;10.30;;;8.37;;
2107;SDS011;1060;52.492;13.388;2024-02-14T07:55:04;11.83;;;9.03;;
2107;SDS011;1060;52.492;13.388;2024-02-14T07:57:42;9.20;;;7.77;;
2107;SDS011;1060;52.492;13.388;2024-02-14T08:00:12;9.00;;;7.30;;
2107;SDS011;1060;52.492;13.388;2024-02-14T08:02:44;10.43;;;7.77;;
2107;SDS011;1060;52.492;13.388;2024-02-14T08:05:10;9.73;;;7.33;;
2107;SDS011;1060;52.492;13.388;2024-02-14T08:07:36;13.43;;;10.23;;
2107;SDS011;1060;52.492;13.388;2024-02-14T08:10:03;10.33;;;8.10;;
2107;SDS011;1060;52.492;13.388;2024-02-14T08:12:33;8.87;;;7.97;;
2107;SDS011;1060;52.492;13.388;2024-02-14T08:14:59;8.93;;;8.07;;
2107;SDS011;1060;52.492;13.388;2024-02-14T08:17:29;8.40;;;7.50;;
2107;SDS011;1060;52.492;13.388;2024-02-14T08:20:01;8.60;;;7.80;;
2107;SDS011;1060;52.492;13.388;2024-02-14T08:22:31;14.63;;;7.80;;
2107;SDS011;1060;52.492;13.388;2024-02-14T08:24:58;9.77;;;8.30;;
2107;SDS011;1060;52.492;13.388;2024-02-14T08:27:27;11.00;;;8.47;;
2107;SDS011;1060;52.492;13.388;2024-02-14T08:29:59;9.47;;;8.67;;
2107;SDS011;1060;52.492;13.388;2024-02-14T08:35:31;11.70;;;9.20;;
2107;SDS011;1060;52.492;13.388;2024-02-14T08:37:59;12.60;;;10.37;;
2107;SDS011;1060;52.492;13.388;2024-02-14T08:40:34;9.87;;;9.07;;
2107;SDS011;1060;52.492;13.388;2024-02-14T08:43:21;14.57;;;7.70;;
2107;SDS011;1060;52.492;13.388;2024-02-14T08:45:55;7.97;;;7.17;;
2107;SDS011;1060;52.492;13.388;2024-02-14T08:48:22;8.00;;;7.17;;
2107;SDS011;1060;52.492;13.388;2024-02-14T08:50:49;9.93;;;8.23;;
2107;SDS011;1060;52.492;13.388;2024-02-14T08:53:15;9.40;;;7.27;;
2107;SDS011;1060;52.492;13.388;2024-02-14T08:55:45;7.50;;;6.80;;
2107;SDS011;1060;52.492;13.388;2024-02-14T08:58:11;8.20;;;6.63;;
2107;SDS011;1060;52.492;13.388;2024-02-14T09:03:38;7.80;;;7.00;;
2107;SDS011;1060;52.492;13.388;2024-02-14T09:06:05;7.67;;;5.93;;
2107;SDS011;1060;52.492;13.388;2024-02-14T09:08:31;6.70;;;5.30;;
2107;SDS011;1060;52.492;13.388;2024-02-14T09:10:58;6.67;;;5.87;;
2107;SDS011;1060;52.492;13.388;2024-02-14T09:13:24;7.20;;;5.07;;
2107;SDS011;1060;52.492;13.388;2024-02-14T09:15:52;9.20;;;5.47;;
2107;SDS011;1060;52.492;13.388;2024-02-14T09:18:19;4.93;;;4.43;;
2107;SDS011;1060;52.492;13.388;2024-02-14T09:20:46;7.63;;;4.30;;
2107;SDS011;1060;52.492;13.388;2024-02-14T09:23:12;13.57;;;10.10;;
2107;SDS011;1060;52.492;13.388;2024-02-14T09:25:39;5.03;;;4.30;;
2107;SDS011;1060;52.492;13.388;2024-02-14T09:28:06;6.03;;;5.13;;
2107;SDS011;1060;52.492;13.388;2024-02-14T09:30:32;6.70;;;5.10;;
2107;SDS011;1060;52.492;13.388;2024-02-14T09:32:58;5.77;;;4.47;;
2107;SDS011;1060;52.492;13.388;2024-02-14T09:35:25;6.13;;;5.07;;
2107;SDS011;1060;52.492;13.388;2024-02-14T09:37:51;6.40;;;5.07;;
2107;SDS011;1060;52.492;13.388;2024-02-14T09:40:20;5.40;;;4.90;;
2107;SDS011;1060;52.492;13.388;2024-02-14T09:42:54;7.90;;;5.30;;
2107;SDS011;1060;52.492;13.388;2024-02-14T09:45:24;5.90;;;5.40;;
2107;SDS011;1060;52.492;13.388;2024-02-14T09:47:54;5.83;;;4.63;;
2107;SDS011;1060;52.492;13.388;2024-02-14T09:50:20;5.20;;;4.57;;
2107;SDS011;1060;52.492;13.388;2024-02-14T09:52:54;13.13;;;9.47;;
2107;SDS011;1060;52.492;13.388;2024-02-14T09:55:21;16.73;;;11.60;;
2107;SDS011;1060;52.492;13.388;2024-02-14T09:58:10;6.17;;;5.57;;
2107;SDS011;1060;52.492;13.388;2024-02-14T10:00:41;7.63;;;5.10;;
2107;SDS011;1060;52.492;13.388;2024-02-14T10:03:08;7.30;;;6.30;;
2107;SDS011;1060;52.492;13.388;2024-02-14T10:05:41;14.97;;;11.53;;
2107;SDS011;1060;52.492;13.388;2024-02-14T10:08:41;12.97;;;5.60;;
2107;SDS011;1060;52.492;13.388;2024-02-14T10:11:08;12.10;;;8.17;;
2107;SDS011;1060;52.492;13.388;2024-02-14T10:13:36;7.67;;;5.73;;
2107;SDS011;1060;52.492;13.388;2024-02-14T10:16:10;7.80;;;5.50;;
2107;SDS011;1060;52.492;13.388;2024-02-14T10:18:38;7.57;;;6.47;;
2107;SDS011;1060;52.492;13.388;2024-02-14T10:21:08;7.67;;;6.90;;
2107;SDS011;1060;52.492;13.388;2024-02-14T10:23:37;5.63;;;5.13;;
2107;SDS011;1060;52.492;13.388;2024-02-14T10:26:08;6.87;;;5.80;;
2107;SDS011;1060;52.492;13.388;2024-02-14T10:28:34;6.80;;;6.10;;
2107;SDS011;1060;52.492;13.388;2024-02-14T10:31:01;4.83;;;4.43;;
2107;SDS011;1060;52.492;13.388;2024-02-14T10:33:35;6.87;;;5.03;;
2107;SDS011;1060;52.492;13.388;2024-02-14T10:36:06;9.60;;;6.70;;
2107;SDS011;1060;52.492;13.388;2024-02-14T10:38:36;6.00;;;5.50;;
2107;SDS011;1060;52.492;13.388;2024-02-14T10:41:03;12.03;;;8.23;;
2107;SDS011;1060;52.492;13.388;2024-02-14T10:43:30;9.47;;;6.80;;
2107;SDS011;1060;52.492;13.388;2024-02-14T10:45:58;5.40;;;4.90;;
2107;SDS011;1060;52.492;13.388;2024-02-14T10:48:25;5.33;;;4.83;;
2107;SDS011;1060;52.492;13.388;2024-02-14T10:50:57;6.27;;;5.60;;
2107;SDS011;1060;52.492;13.388;2024-02-14T10:53:24;6.93;;;6.43;;
2107;SDS011;1060;52.492;13.388;2024-02-14T10:55:58;8.60;;;6.73;;
2107;SDS011;1060;52.492;13.388;2024-02-14T10:58:56;7.70;;;6.43;;
2107;SDS011;1060;52.492;13.388;2024-02-14T11:01:28;5.70;;;5.20;;
2107;SDS011;1060;52.492;13.388;2024-02-14T11:04:00;7.47;;;6.33;;
2107;SDS011;1060;52.492;13.388;2024-02-14T11:06:52;11.03;;;7.40;;
2107;SDS011;1060;52.492;13.388;2024-02-14T11:09:35;9.23;;;7.47;;
2107;SDS011;1060;52.492;13.388;2024-02-14T11:12:11;8.80;;;6.10;;
2107;SDS011;1060;52.492;13.388;2024-02-14T11:14:42;6.77;;;6.10;;
2107;SDS011;1060;52.492;13.388;2024-02-14T11:17:32;12.13;;;5.97;;
2107;SDS011;1060;52.492;13.388;2024-02-14T11:20:17;5.77;;;5.30;;
2107;SDS011;1060;52.492;13.388;2024-02-14T11:23:31;6.37;;;5.83;;
2107;SDS011;1060;52.492;13.388;2024-02-14T11:26:06;9.20;;;5.97;;
2107;SDS011;1060;52.492;13.388;2024-02-14T11:28:59;7.93;;;5.30;;
2107;SDS011;1060;52.492;13.388;2024-02-14T11:31:32;5.20;;;4.90;;
2107;SDS011;1060;52.492;13.388;2024-02-14T11:34:16;9.80;;;7.30;;
2107;SDS011;1060;52.492;13.388;2024-02-14T11:39:54;7.63;;;5.37;;
2107;SDS011;1060;52.492;13.388;2024-02-14T11:42:24;12.13;;;8.80;;
2107;SDS011;1060;52.492;13.388;2024-02-14T11:45:29;9.60;;;6.87;;
2107;SDS011;1060;52.492;13.388;2024-02-14T11:48:22;6.70;;;5.97;;
2107;SDS011;1060;52.492;13.388;2024-02-14T11:50:52;9.10;;;7.70;;
2107;SDS011;1060;52.492;13.388;2024-02-14T11:56:37;6.87;;;5.93;;
2107;SDS011;1060;52.492;13.388;2024-02-14T11:59:14;7.70;;;6.07;;
2107;SDS011;1060;52.492;13.388;2024-02-14T12:01:47;9.27;;;5.53;;
2107;SDS011;1060;52.492;13.388;2024-02-14T12:04:19;6.57;;;5.97;;
2107;SDS011;1060;52.492;13.388;2024-02-14T12:06:48;9.00;;;7.70;;
2107;SDS011;1060;52.492;13.388;2024-02-14T12:09:17;8.63;;;7.43;;
2107;SDS011;1060;52.492;13.388;2024-02-14T12:11:44;11.93;;;7.93;;
2107;SDS011;1060;52.492;13.388;2024-02-14T12:14:16;14.07;;;10.00;;
2107;SDS011;1060;52.492;13.388;2024-02-14T12:16:51;10.53;;;7.07;;
2107;SDS011;1060;52.492;13.388;2024-02-14T12:19:25;8.60;;;7.30;;
2107;SDS011;1060;52.492;13.388;2024-02-14T12:21:52;9.70;;;8.77;;
2107;SDS011;1060;52.492;13.388;2024-02-14T12:24:19;14.70;;;13.07;;
2107;SDS011;1060;52.492;13.388;2024-02-14T12:26:51;15.30;;;11.40;;
2107;SDS011;1060;52.492;13.388;2024-02-14T12:29:23;10.77;;;9.70;;
2107;SDS011;1060;52.492;13.388;2024-02-14T12:32:05;9.50;;;8.70;;
2107;SDS011;1060;52.492;13.388;2024-02-14T12:34:43;7.87;;;7.10;;
2107;SDS011;1060;52.492;13.388;2024-02-14T12:37:18;7.97;;;7.37;;
2107;SDS011;1060;52.492;13.388;2024-02-14T12:40:07;13.10;;;9.80;;
2107;SDS011;1060;52.492;13.388;2024-02-14T12:42:45;8.90;;;8.03;;
2107;SDS011;1060;52.492;13.388;2024-02-14T12:45:14;10.57;;;9.67;;
2107;SDS011;1060;52.492;13.388;2024-02-14T12:47:54;8.10;;;7.30;;
2107;SDS011;1060;52.492;13.388;2024-02-14T12:50:22;14.33;;;8.37;;
2107;SDS011;1060;52.492;13.388;2024-02-14T12:52:52;6.60;;;6.00;;
2107;SDS011;1060;52.492;13.388;2024-02-14T12:55:31;8.07;;;6.27;;
2107;SDS011;1060;52.492;13.388;2024-02-14T12:57:58;7.27;;;6.63;;
2107;SDS011;1060;52.492;13.388;2024-02-14T13:00:27;7.90;;;7.27;;
2107;SDS011;1060;52.492;13.388;2024-02-14T13:03:06;9.00;;;6.40;;
2107;SDS011;1060;52.492;13.388;2024-02-14T13:05:40;6.70;;;6.10;;
2107;SDS011;1060;52.492;13.388;2024-02-14T13:08:07;8.20;;;7.33;;
2107;SDS011;1060;52.492;13.388;2024-02-14T13:34:55;8.70;;;7.87;;
2107;SDS011;1060;52.492;13.388;2024-02-14T13:37:34;9.70;;;8.63;;
2107;SDS011;1060;52.492;13.388;2024-02-14T13:40:04;14.07;;;12.13;;
2107;SDS011;1060;52.492;13.388;2024-02-14T13:42:44;8.23;;;7.40;;
2107;SDS011;1060;52.492;13.388;2024-02-14T13:45:13;9.10;;;8.20;;
2107;SDS011;1060;52.492;13.388;2024-02-14T13:48:01;7.80;;;7.13;;
2107;SDS011;1060;52.492;13.388;2024-02-14T13:53:51;14.50;;;13.00;;
2107;SDS011;1060;52.492;13.388;2024-02-14T13:59:20;10.37;;;9.13;;
2107;SDS011;1060;52.492;13.388;2024-02-14T14:01:49;8.47;;;7.60;;
2107;SDS011;1060;52.492;13.388;2024-02-14T14:04:18;9.23;;;7.97;;
2107;SDS011;1060;52.492;13.388;2024-02-14T14:06:56;7.77;;;7.07;;
2107;SDS011;1060;52.492;13.388;2024-02-14T14:09:35;9.10;;;8.20;;
2107;SDS011;1060;52.492;13.388;2024-02-14T14:12:22;8.77;;;8.07;;
2107;SDS011;1060;52.492;13.388;2024-02-14T14:14:48;9.17;;;8.37;;
2107;SDS011;1060;52.492;13.388;2024-02-14T14:17:14;9.67;;;8.87;;
2107;SDS011;1060;52.492;13.388;2024-02-14T14:19:43;12.40;;;11.30;;
2107;SDS011;1060;52.492;13.388;2024-02-14T14:22:12;11.83;;;10.60;;
2107;SDS011;1060;52.492;13.388;2024-02-14T14:24:41;10.27;;;9.37;;
2107;SDS011;1060;52.492;13.388;2024-02-14T14:27:10;10.60;;;9.50;;
2107;SDS011;1060;52.492;13.388;2024-02-14T14:30:00;15.63;;;9.70;;
2107;SDS011;1060;52.492;13.388;2024-02-14T14:32:30;11.47;;;10.33;;
2107;SDS011;1060;52.492;13.388;2024-02-14T14:35:02;11.80;;;10.60;;
2107;SDS011;1060;52.492;13.388;2024-02-14T14:37:40;13.10;;;9.40;;
2107;SDS011;1060;52.492;13.388;2024-02-14T14:40:30;11.20;;;10.20;;
2107;SDS011;1060;52.492;13.388;2024-02-14T14:43:23;11.67;;;10.67;;
2107;SDS011;1060;52.492;13.388;2024-02-14T14:46:00;8.10;;;7.40;;
2107;SDS011;1060;52.492;13.388;2024-02-14T14:48:38;11.70;;;10.10;;
2107;SDS011;1060;52.492;13.388;2024-02-14T14:51:14;9.37;;;8.47;;
2107;SDS011;1060;52.492;13.388;2024-02-14T14:53:52;10.03;;;9.13;;
2107;SDS011;1060;52.492;13.388;2024-02-14T14:56:52;11.80;;;9.47;;
2107;SDS011;1060;52.492;13.388;2024-02-14T15:00:13;10.33;;;9.33;;
2107;SDS011;1060;52.492;13.388;2024-02-14T15:05:28;7.70;;;7.00;;
2107;SDS011;1060;52.492;13.388;2024-02-14T15:08:34;10.17;;;8.93;;
2107;SDS011;1060;52.492;13.388;2024-02-14T15:11:34;8.43;;;7.50;;
2107;SDS011;1060;52.492;13.388;2024-02-14T15:16:45;10.10;;;8.67;;
2107;SDS011;1060;52.492;13.388;2024-02-14T15:19:21;9.67;;;6.53;;
2107;SDS011;1060;52.492;13.388;2024-02-14T15:21:56;9.47;;;7.87;;
2107;SDS011;1060;52.492;13.388;2024-02-14T15:24:50;8.33;;;7.47;;
2107;SDS011;1060;52.492;13.388;2024-02-14T15:27:20;11.50;;;8.27;;
2107;SDS011;1060;52.492;13.388;2024-02-14T15:32:33;9.10;;;8.30;;
2107;SDS011;1060;52.492;13.388;2024-02-14T15:35:20;7.83;;;7.23;;
2107;SDS011;1060;52.492;13.388;2024-02-14T15:37:47;14.10;;;11.97;;
2107;SDS011;1060;52.492;13.388;2024-02-14T15:40:15;8.60;;;7.97;;
2107;SDS011;1060;52.492;13.388;2024-02-14T15:42:42;7.50;;;6.73;;
2107;SDS011;1060;52.492;13.388;2024-02-14T15:45:10;8.83;;;7.93;;
2107;SDS011;1060;52.492;13.388;2024-02-14T15:47:41;8.80;;;8.10;;
2107;SDS011;1060;52.492;13.388;2024-02-14T15:50:08;11.77;;;7.70;;
2107;SDS011;1060;52.492;13.388;2024-02-14T15:52:35;7.90;;;7.20;;
2107;SDS011;1060;52.492;13.388;2024-02-14T15:55:03;9.47;;;8.50;;
2107;SDS011;1060;52.492;13.388;2024-02-14T15:57:45;10.63;;;9.40;;
2107;SDS011;1060;52.492;13.388;2024-02-14T16:00:18;9.37;;;8.30;;
2107;SDS011;1060;52.492;13.388;2024-02-14T16:02:47;12.40;;;7.97;;
2107;SDS011;1060;52.492;13.388;2024-02-14T16:05:23;9.13;;;8.37;;
2107;SDS011;1060;52.492;13.388;2024-02-14T16:07:49;11.77;;;7.93;;